Time;durP1;ratioP1;P1;durP2;ratioP2;P2;SDS_P1;SDS_P2;PMS_P1;PMS_P2;Temp;Humidity;BMP_temperature;BMP_pressure;BME280_temperature;BME280_humidity;BME280_pressure;Samples;Min_cycle;Max_cycle;Signal;HPM_P1;HPM_P2
2023/09/29 00:01:18;;;;;;;10.02;4.60;;;;;;;15.05;100.00;101454.19;5028918;28;20075;-75
2023/09/29 00:03:44;;;;;;;13.00;4.97;;;;;;;15.07;100.00;101461.44;5045917;28;20071;-76
2023/09/29 00:06:10;;;;;;;11.50;4.28;;;;;;;15.05;100.00;101450.59;5043962;28;20030;-76
2023/09/29 00:08:35;;;;;;;19.73;4.68;;;;;;;15.07;100.00;101450.47;5027084;28;20029;-71
2023/09/29 00:11:01;;;;;;;10.55;4.70;;;;;;;15.07;100.00;101458.69;5026084;28;20112;-77
2023/09/29 00:13:26;;;;;;;13.02;4.47;;;;;;;15.08;100.00;101453.09;5025403;28;20606;-76
2023/09/29 00:15:51;;;;;;;9.75;4.55;;;;;;;15.08;100.00;101461.31;5027337;28;20508;-76
2023/09/29 00:18:17;;;;;;;11.10;4.80;;;;;;;15.07;100.00;101454.09;5025713;28;20022;-76
2023/09/29 00:20:42;;;;;;;13.73;4.85;;;;;;;15.08;100.00;101452.22;5025909;28;20095;-76
2023/09/29 00:23:09;;;;;;;10.35;4.55;;;;;;;15.07;100.00;101459.56;5027346;28;20037;-76
2023/09/29 00:25:34;;;;;;;9.07;4.53;;;;;;;15.09;100.00;101456.69;5029606;28;20284;-73
2023/09/29 00:28:00;;;;;;;10.88;4.40;;;;;;;15.09;100.00;101454.81;5039584;28;20116;-76
2023/09/29 00:30:26;;;;;;;15.15;4.60;;;;;;;15.11;100.00;101451.94;5030438;28;20159;-76
2023/09/29 00:32:53;;;;;;;17.23;4.50;;;;;;;15.15;100.00;101451.56;5030955;28;20137;-76
2023/09/29 00:35:27;;;;;;;13.65;5.20;;;;;;;15.20;100.00;101449.34;5028700;28;20037;-77
2023/09/29 00:37:54;;;;;;;14.15;5.20;;;;;;;15.23;100.00;101448.22;5028098;28;20576;-77
2023/09/29 00:40:20;;;;;;;17.55;5.57;;;;;;;15.26;100.00;101447.97;5028934;28;20396;-78
2023/09/29 00:42:46;;;;;;;13.85;4.72;;;;;;;15.26;100.00;101443.34;5028950;28;20044;-76
2023/09/29 00:45:12;;;;;;;11.70;5.15;;;;;;;15.33;100.00;101446.44;5029880;28;20526;-73
2023/09/29 00:47:38;;;;;;;14.80;5.28;;;;;;;15.35;100.00;101447.19;5029217;28;20029;-77
2023/09/29 00:50:07;;;;;;;13.38;4.97;;;;;;;15.36;100.00;101448.06;5029798;28;20140;-77
2023/09/29 00:52:33;;;;;;;11.38;5.15;;;;;;;15.41;100.00;101430.22;5029938;28;20045;-77
2023/09/29 00:54:59;;;;;;;12.63;5.72;;;;;;;15.44;100.00;101429.13;5028828;28;20413;-76
2023/09/29 00:57:27;;;;;;;16.67;5.50;;;;;;;15.47;100.00;101437.06;5035572;28;20037;-75
2023/09/29 00:59:53;;;;;;;17.55;5.57;;;;;;;15.49;100.00;101441.44;5048272;28;20025;-77
2023/09/29 01:02:20;;;;;;;13.63;5.22;;;;;;;15.54;100.00;101438.31;5035392;28;20038;-75
2023/09/29 01:04:46;;;;;;;8.75;4.75;;;;;;;15.54;100.00;101438.31;5030057;28;20045;-75
2023/09/29 01:07:12;;;;;;;12.43;5.63;;;;;;;15.56;100.00;101433.56;5028979;28;20032;-76
2023/09/29 01:09:38;;;;;;;14.18;5.13;;;;;;;15.56;100.00;101434.41;5029967;28;20517;-75
2023/09/29 01:12:09;;;;;;;8.73;5.55;;;;;;;15.59;100.00;101419.59;5029076;28;20143;-76
2023/09/29 01:14:35;;;;;;;15.43;5.87;;;;;;;15.61;100.00;101430.41;5030428;28;20099;-76
2023/09/29 01:17:02;;;;;;;12.88;5.50;;;;;;;15.61;100.00;101419.44;5029039;28;20013;-77
2023/09/29 01:19:27;;;;;;;12.63;5.60;;;;;;;15.63;100.00;101425.69;5030171;28;20220;-76
2023/09/29 01:21:53;;;;;;;10.00;5.07;;;;;;;15.64;100.00;101419.22;5030094;28;20494;-77
2023/09/29 01:24:19;;;;;;;12.43;5.13;;;;;;;15.66;100.00;101415.34;5032410;28;20036;-77
2023/09/29 01:26:44;;;;;;;12.32;4.93;;;;;;;15.67;100.00;101410.75;5031892;28;20505;-77
2023/09/29 01:29:11;;;;;;;8.80;4.63;;;;;;;15.68;100.00;101398.78;5047926;28;20114;-77
2023/09/29 01:31:37;;;;;;;9.30;4.97;;;;;;;15.68;100.00;101391.41;5044191;28;20104;-76
2023/09/29 01:34:04;;;;;;;11.85;4.78;;;;;;;15.71;100.00;101406.72;5030301;28;20119;-77
2023/09/29 01:36:30;;;;;;;12.25;4.55;;;;;;;15.69;100.00;101395.91;5029817;28;20056;-77
2023/09/29 01:38:56;;;;;;;9.15;5.32;;;;;;;15.71;100.00;101387.53;5027988;28;20115;-78
2023/09/29 01:41:21;;;;;;;13.10;4.75;;;;;;;15.70;100.00;101392.13;5029240;28;20045;-75
2023/09/29 01:43:47;;;;;;;13.85;4.72;;;;;;;15.70;100.00;101380.31;5027561;28;20037;-77
2023/09/29 01:46:15;;;;;;;9.98;4.93;;;;;;;15.73;100.00;101380.06;5029357;28;20029;-77
2023/09/29 01:48:43;;;;;;;11.30;5.22;;;;;;;15.72;100.00;101379.19;5028141;28;20037;-77
2023/09/29 01:51:09;;;;;;;6.65;4.70;;;;;;;15.77;100.00;101389.75;5029394;28;20119;-78
2023/09/29 01:53:34;;;;;;;10.10;4.47;;;;;;;15.78;100.00;101384.13;5029743;28;20052;-74
2023/09/29 01:56:01;;;;;;;8.75;4.10;;;;;;;15.77;100.00;101371.44;5028871;28;20057;-78
2023/09/29 01:58:27;;;;;;;12.73;4.57;;;;;;;15.79;100.00;101368.53;5011314;28;20576;-77
2023/09/29 02:00:53;;;;;;;7.28;4.28;;;;;;;15.80;100.00;101378.50;5027517;28;20175;-77
2023/09/29 02:03:18;;;;;;;9.90;4.20;;;;;;;15.81;100.00;101372.91;5027880;28;20137;-76
2023/09/29 02:05:44;;;;;;;7.95;4.43;;;;;;;15.82;100.00;101371.03;5029326;28;20033;-78
2023/09/29 02:08:10;;;;;;;6.78;3.53;;;;;;;15.81;100.00;101358.31;5027493;28;20495;-72
2023/09/29 02:10:36;;;;;;;8.07;3.72;;;;;;;15.81;100.00;101361.94;5028836;28;20497;-72
2023/09/29 02:13:04;;;;;;;8.82;3.53;;;;;;;15.84;100.00;101365.41;5029604;28;20394;-75
2023/09/29 02:15:33;;;;;;;7.15;3.55;;;;;;;15.85;100.00;101362.50;5027260;28;20541;-77
2023/09/29 02:18:00;;;;;;;6.47;3.95;;;;;;;15.88;100.00;101375.97;5011403;28;20136;-77
2023/09/29 02:20:29;;;;;;;8.60;3.50;;;;;;;15.87;100.00;101365.16;5027364;28;20032;-77
2023/09/29 02:22:56;;;;;;;9.70;3.92;;;;;;;15.86;100.00;101366.16;5030441;28;20029;-76
2023/09/29 02:25:25;;;;;;;10.70;3.58;;;;;;;15.86;100.00;101360.66;5042023;28;20037;-76
2023/09/29 02:27:56;;;;;;;8.02;3.50;;;;;;;15.85;100.00;101361.66;5027073;28;20544;-75
2023/09/29 02:30:24;;;;;;;7.13;3.28;;;;;;;15.82;100.00;101363.66;5028484;28;20041;-75
2023/09/29 02:32:52;;;;;;;9.48;3.95;;;;;;;15.82;100.00;101349.94;5027530;28;20041;-74
2023/09/29 02:35:18;;;;;;;8.30;3.78;;;;;;;15.87;100.00;101355.03;5028680;28;20064;-77
2023/09/29 02:37:43;;;;;;;10.25;3.65;;;;;;;15.89;100.00;101342.03;5028434;28;20061;-76
2023/09/29 02:40:13;;;;;;;7.18;3.42;;;;;;;15.91;100.00;101342.78;5028136;28;20036;-77
2023/09/29 02:42:39;;;;;;;7.18;3.72;;;;;;;15.95;100.00;101337.91;5027151;28;20049;-76
2023/09/29 02:45:06;;;;;;;8.38;3.25;;;;;;;15.91;100.00;101330.94;5027254;28;20455;-75
2023/09/29 02:47:31;;;;;;;12.10;3.20;;;;;;;15.95;100.00;101325.06;5027251;28;20041;-77
2023/09/29 02:49:57;;;;;;;5.75;3.13;;;;;;;15.95;100.00;101318.72;5037531;28;20036;-78
2023/09/29 02:52:23;;;;;;;5.93;3.38;;;;;;;15.95;100.00;101325.06;5048423;28;20062;-76
2023/09/29 02:54:49;;;;;;;7.95;3.00;;;;;;;15.98;100.00;101327.50;5030102;28;20080;-76
2023/09/29 02:57:16;;;;;;;4.90;3.13;;;;;;;16.01;100.00;101320.91;5031201;28;20397;-76
2023/09/29 02:59:42;;;;;;;5.85;3.08;;;;;;;16.03;100.00;101319.75;5027832;28;20022;-77
2023/09/29 03:02:07;;;;;;;4.97;2.78;;;;;;;16.04;100.00;101307.78;5039893;28;20037;-77
2023/09/29 03:04:32;;;;;;;5.22;2.80;;;;;;;16.07;100.00;101312.13;5041698;28;20044;-76
2023/09/29 03:06:59;;;;;;;7.72;3.63;;;;;;;16.06;100.00;101310.38;5027844;28;20025;-77
2023/09/29 03:09:25;;;;;;;7.35;3.03;;;;;;;16.07;100.00;101312.97;5027645;28;20672;-76
2023/09/29 03:11:51;;;;;;;10.52;3.22;;;;;;;16.11;100.00;101313.59;5026124;28;20037;-78
2023/09/29 03:14:17;;;;;;;8.18;3.35;;;;;;;16.12;100.00;101312.56;5026427;28;20041;-76
2023/09/29 03:16:45;;;;;;;10.10;3.25;;;;;;;16.13;100.00;101317.06;5026477;28;20033;-76
2023/09/29 03:19:10;;;;;;;7.80;3.22;;;;;;;16.13;100.00;101308.81;5027997;28;20037;-77
2023/09/29 03:21:36;;;;;;;5.68;2.97;;;;;;;16.15;100.00;101309.56;5027769;28;20485;-77
2023/09/29 03:24:02;;;;;;;4.78;2.85;;;;;;;16.16;100.00;101307.69;5026643;28;20067;-77
2023/09/29 03:26:31;;;;;;;6.72;2.63;;;;;;;16.17;100.00;101303.94;5027266;28;20521;-75
2023/09/29 03:28:57;;;;;;;7.07;2.92;;;;;;;16.15;100.00;101292.22;5009243;28;20489;-77
2023/09/29 03:31:22;;;;;;;5.82;2.90;;;;;;;16.13;100.00;101296.97;5027554;28;20056;-78
2023/09/29 03:33:48;;;;;;;7.18;3.10;;;;;;;16.12;100.00;101281.50;5027698;28;20405;-76
2023/09/29 03:36:14;;;;;;;7.10;2.95;;;;;;;16.10;100.00;101281.66;5027501;28;20097;-77
2023/09/29 03:38:41;;;;;;;6.55;3.35;;;;;;;16.08;100.00;101284.53;5030775;28;20033;-73
2023/09/29 03:41:07;;;;;;;5.63;3.13;;;;;;;16.06;100.00;101260.97;5035806;28;20075;-78
2023/09/29 03:43:32;;;;;;;6.47;3.58;;;;;;;16.06;100.00;101258.22;5027717;28;20049;-77
2023/09/29 03:45:58;;;;;;;8.65;3.65;;;;;;;16.06;100.00;101252.75;5026042;28;20048;-77
2023/09/29 03:48:25;;;;;;;8.27;2.92;;;;;;;16.06;100.00;101267.34;5027697;28;20040;-75
2023/09/29 03:50:50;;;;;;;7.25;3.38;;;;;;;16.10;100.00;101254.22;5009618;28;20034;-77
2023/09/29 03:53:18;;;;;;;7.07;3.22;;;;;;;16.10;100.00;101248.72;5026856;28;20032;-77
2023/09/29 03:55:47;;;;;;;5.55;3.20;;;;;;;16.12;100.00;101249.44;5026902;28;20428;-74
2023/09/29 03:58:14;;;;;;;5.47;2.95;;;;;;;16.14;100.00;101260.31;5027440;28;20469;-76
2023/09/29 04:00:41;;;;;;;5.15;3.20;;;;;;;16.14;100.00;101258.44;5031357;28;20572;-78
2023/09/29 04:03:07;;;;;;;10.00;3.72;;;;;;;16.16;100.00;101263.78;5013569;28;20032;-76
2023/09/29 04:05:32;;;;;;;7.85;3.00;;;;;;;16.18;100.00;101251.66;5032066;28;20397;-75
2023/09/29 04:07:57;;;;;;;4.95;3.15;;;;;;;16.18;100.00;101243.44;5029584;28;20052;-77
2023/09/29 04:10:23;;;;;;;11.45;3.33;;;;;;;16.15;100.00;101237.34;5033437;28;20420;-79
2023/09/29 04:12:49;;;;;;;10.77;3.20;;;;;;;16.15;100.00;101235.44;5042159;28;20103;-75
2023/09/29 04:15:16;;;;;;;4.18;2.78;;;;;;;16.22;100.00;101233.88;5030871;28;20638;-77
2023/09/29 04:17:41;;;;;;;5.10;2.92;;;;;;;16.24;100.00;101251.09;5031361;28;20041;-77
2023/09/29 04:20:08;;;;;;;6.93;3.13;;;;;;;16.25;100.00;101251.97;5038138;28;20361;-76
2023/09/29 04:22:34;;;;;;;5.47;3.33;;;;;;;16.26;100.00;101240.84;5032593;28;20052;-76
2023/09/29 04:24:59;;;;;;;6.05;3.25;;;;;;;16.31;100.00;101235.78;5028177;28;20025;-75
2023/09/29 04:27:25;;;;;;;8.23;3.42;;;;;;;16.34;100.00;101229.16;5036698;28;20497;-76
2023/09/29 04:29:51;;;;;;;6.35;3.17;;;;;;;16.33;100.00;101225.56;5030378;28;20076;-72
2023/09/29 04:32:17;;;;;;;5.70;3.00;;;;;;;16.38;100.00;101218.78;5029159;28;20112;-77
2023/09/29 04:34:43;;;;;;;8.07;3.10;;;;;;;16.38;100.00;101227.88;5030864;28;20103;-77
2023/09/29 04:37:08;;;;;;;4.68;2.83;;;;;;;16.40;100.00;101225.84;5030374;28;20489;-76
2023/09/29 04:39:34;;;;;;;5.15;3.00;;;;;;;16.43;100.00;101230.22;5012821;28;20030;-76
2023/09/29 04:42:00;;;;;;;7.93;2.92;;;;;;;16.42;100.00;101221.09;5028633;28;20077;-76
2023/09/29 04:44:25;;;;;;;6.75;3.33;;;;;;;16.45;100.00;101215.31;5030197;28;20819;-77
2023/09/29 04:46:50;;;;;;;4.80;3.05;;;;;;;16.47;100.00;101218.81;5028972;28;20041;-77
2023/09/29 04:49:16;;;;;;;5.60;2.97;;;;;;;16.47;100.00;101218.81;5029335;28;20037;-77
2023/09/29 04:51:43;;;;;;;7.10;3.33;;;;;;;16.50;100.00;101215.75;5030379;28;20053;-78
2023/09/29 04:54:10;;;;;;;6.63;3.20;;;;;;;16.51;100.00;101228.50;5030327;28;20523;-77
2023/09/29 04:56:35;;;;;;;5.97;3.17;;;;;;;16.49;100.00;101233.25;5044004;28;20477;-77
2023/09/29 04:59:01;;;;;;;7.45;3.20;;;;;;;16.50;100.00;101229.50;5031719;28;20041;-78
2023/09/29 05:01:27;;;;;;;6.40;3.05;;;;;;;16.54;100.00;101224.59;5015164;28;20025;-77
2023/09/29 05:03:52;;;;;;;7.90;3.53;;;;;;;16.56;100.00;101226.22;5030205;28;20178;-77
2023/09/29 05:06:17;;;;;;;6.03;3.10;;;;;;;16.56;100.00;101222.59;5029605;28;20042;-77
2023/09/29 05:08:44;;;;;;;5.97;3.10;;;;;;;16.58;100.00;101221.44;5048496;28;20029;-78
2023/09/29 05:11:22;;;;;;;4.72;3.40;;;;;;;16.57;100.00;101211.47;5038066;28;20048;-75
2023/09/29 05:13:51;;;;;;;6.35;3.03;;;;;;;16.60;100.00;101207.56;5029765;28;20030;-76
2023/09/29 05:16:17;;;;;;;4.30;2.92;;;;;;;16.60;100.00;101207.56;5028606;28;20110;-76
2023/09/29 05:18:44;;;;;;;5.72;3.38;;;;;;;16.62;100.00;101199.19;5029632;28;20529;-76
2023/09/29 05:21:10;;;;;;;5.50;3.22;;;;;;;16.63;100.00;101201.78;5029643;28;20052;-77
2023/09/29 05:23:37;;;;;;;6.20;3.33;;;;;;;16.64;100.00;101192.50;5032798;28;20087;-73
2023/09/29 05:26:04;;;;;;;6.07;3.17;;;;;;;16.67;100.00;101200.47;5032187;28;20119;-75
2023/09/29 05:28:30;;;;;;;6.35;3.17;;;;;;;16.70;100.00;101197.47;5040895;28;20051;-78
2023/09/29 05:30:56;;;;;;;4.15;2.80;;;;;;;16.73;100.00;101188.94;5049382;28;20041;-76
2023/09/29 05:33:21;;;;;;;4.45;3.30;;;;;;;16.74;100.00;101187.97;5042897;28;20041;-77
2023/09/29 05:35:46;;;;;;;6.00;3.60;;;;;;;16.76;100.00;101194.16;5045174;28;20031;-76
2023/09/29 05:38:12;;;;;;;7.82;3.10;;;;;;;16.77;100.00;101195.03;5028111;28;20065;-76
2023/09/29 05:40:41;;;;;;;6.82;3.10;;;;;;;16.76;100.00;101193.31;5028874;28;20041;-75
2023/09/29 05:43:12;;;;;;;4.10;2.90;;;;;;;16.76;100.00;101196.06;5039386;28;20045;-74
2023/09/29 05:45:37;;;;;;;7.53;3.20;;;;;;;16.77;100.00;101193.16;5038047;28;20041;-77
2023/09/29 05:48:03;;;;;;;7.53;3.40;;;;;;;16.79;100.00;101202.13;5028653;28;20037;-74
2023/09/29 05:50:29;;;;;;;7.43;3.17;;;;;;;16.79;100.00;101187.53;5029239;28;20050;-77
2023/09/29 05:52:54;;;;;;;5.65;3.22;;;;;;;16.81;100.00;101191.00;5028759;28;20056;-77
2023/09/29 05:55:19;;;;;;;7.65;3.40;;;;;;;16.82;100.00;101195.47;5029063;28;20044;-76
2023/09/29 05:57:45;;;;;;;9.75;3.88;;;;;;;16.79;100.00;101199.41;5027963;28;20049;-77
2023/09/29 06:00:13;;;;;;;5.40;3.03;;;;;;;16.80;100.00;101195.63;5028647;28;20460;-75
2023/09/29 06:02:40;;;;;;;5.50;2.90;;;;;;;16.85;100.00;101194.34;5045247;28;20043;-77
2023/09/29 06:05:05;;;;;;;4.53;3.22;;;;;;;16.87;100.00;101195.03;5035756;28;20568;-77
2023/09/29 06:07:31;;;;;;;4.13;3.13;;;;;;;16.91;100.00;101197.34;5028074;28;20032;-77
2023/09/29 06:09:56;;;;;;;6.57;3.53;;;;;;;16.94;100.00;101199.84;5027118;28;20032;-77
2023/09/29 06:12:21;;;;;;;6.60;2.88;;;;;;;16.97;100.00;101205.06;5032671;28;20032;-76
2023/09/29 06:14:47;;;;;;;7.60;3.55;;;;;;;17.02;100.00;101210.09;5047242;28;20098;-76
2023/09/29 06:17:12;;;;;;;5.93;3.10;;;;;;;17.05;100.00;101220.81;5047416;28;20120;-75
2023/09/29 06:19:37;;;;;;;7.60;3.75;;;;;;;17.09;100.00;101214.00;5048650;28;20045;-77
2023/09/29 06:22:04;;;;;;;6.57;3.25;;;;;;;17.12;100.00;101219.22;5043206;28;20492;-75
2023/09/29 06:24:29;;;;;;;8.10;3.40;;;;;;;17.21;100.00;101212.00;5027528;28;20033;-77
2023/09/29 06:26:55;;;;;;;8.20;3.53;;;;;;;17.27;100.00;101204.03;5041032;28;20039;-76
2023/09/29 06:29:20;;;;;;;9.18;3.38;;;;;;;17.34;100.00;101202.41;5046715;28;20057;-76
2023/09/29 06:31:46;;;;;;;10.88;3.70;;;;;;;17.37;100.00;101201.25;5037624;28;20021;-76
2023/09/29 06:34:11;;;;;;;7.75;3.63;;;;;;;17.44;100.00;101207.03;5028368;28;20033;-77
2023/09/29 06:36:36;;;;;;;6.15;3.33;;;;;;;17.49;100.00;101210.25;5028272;28;20163;-77
2023/09/29 06:39:02;;;;;;;5.80;3.42;;;;;;;17.53;100.00;101214.41;5027081;28;20033;-76
2023/09/29 06:41:27;;;;;;;5.07;3.30;;;;;;;17.56;100.00;101214.13;5027910;28;20052;-75
2023/09/29 06:43:53;;;;;;;6.57;3.33;;;;;;;17.59;100.00;101220.19;5026616;28;20091;-76
2023/09/29 06:46:18;;;;;;;6.65;3.35;;;;;;;17.64;100.00;101225.25;5028232;28;20152;-72
2023/09/29 06:48:44;;;;;;;6.65;2.85;;;;;;;17.70;100.00;101223.81;5028473;28;20513;-75
2023/09/29 06:51:09;;;;;;;6.65;2.97;;;;;;;17.69;100.00;101216.56;5041518;28;20037;-76
2023/09/29 06:53:35;;;;;;;6.90;3.83;;;;;;;17.73;100.00;101216.16;5034668;28;20378;-74
2023/09/29 06:56:00;;;;;;;6.65;3.42;;;;;;;17.76;100.00;101224.09;5034813;28;20394;-75
2023/09/29 06:58:26;;;;;;;6.10;3.58;;;;;;;17.77;100.00;101228.59;5033114;28;20033;-76
2023/09/29 07:00:52;;;;;;;7.55;3.40;;;;;;;17.82;100.00;101228.16;5026334;28;20044;-76
2023/09/29 07:03:18;;;;;;;8.30;3.35;;;;;;;17.86;100.00;101232.34;5028094;28;20057;-74
2023/09/29 07:05:46;;;;;;;6.40;3.05;;;;;;;17.91;100.00;101223.66;5028237;28;20064;-75
2023/09/29 07:08:12;;;;;;;4.28;2.65;;;;;;;17.95;100.00;101228.72;5033652;28;20036;-75
2023/09/29 07:10:38;;;;;;;4.18;2.63;;;;;;;17.95;100.00;101230.56;5039981;28;20053;-74
2023/09/29 07:13:04;;;;;;;8.40;3.38;;;;;;;18.00;100.00;101225.47;5027212;28;20059;-76
2023/09/29 07:15:29;;;;;;;4.68;2.75;;;;;;;18.02;100.00;101229.81;5027450;28;20061;-76
2023/09/29 07:17:55;;;;;;;5.05;3.03;;;;;;;18.06;100.00;101225.75;5010402;28;20643;-77
2023/09/29 07:20:21;;;;;;;7.90;2.92;;;;;;;18.18;100.00;101231.94;5026696;28;20523;-74
2023/09/29 07:22:46;;;;;;;5.78;2.88;;;;;;;18.27;100.00;101231.03;5027575;28;20041;-78
2023/09/29 07:25:14;;;;;;;3.67;2.47;;;;;;;18.38;100.00;101227.22;5026041;28;20128;-76
2023/09/29 07:27:39;;;;;;;6.30;3.00;;;;;;;18.45;100.00;101231.09;5026133;28;20116;-76
2023/09/29 07:30:07;;;;;;;5.18;2.70;;;;;;;18.57;100.00;101237.28;5027939;28;20541;-75
2023/09/29 07:32:32;;;;;;;6.28;3.00;;;;;;;18.71;100.00;101236.78;5028223;28;20382;-76
2023/09/29 07:34:57;;;;;;;5.70;2.75;;;;;;;18.81;100.00;101243.09;5027705;28;20052;-75
2023/09/29 07:37:23;;;;;;;4.95;2.78;;;;;;;18.89;100.00;101244.22;5026595;28;20021;-76
2023/09/29 07:39:48;;;;;;;5.43;2.80;;;;;;;18.95;100.00;101238.94;5025606;28;20135;-77
2023/09/29 07:42:13;;;;;;;4.88;2.85;;;;;;;19.12;100.00;101240.00;5029534;28;20473;-75
2023/09/29 07:44:39;;;;;;;5.43;2.75;;;;;;;19.29;100.00;101252.91;5047046;28;20056;-76
2023/09/29 07:47:05;;;;;;;8.30;3.05;;;;;;;19.38;100.00;101246.44;5036300;28;20481;-76
2023/09/29 07:49:33;;;;;;;6.82;2.90;;;;;;;19.48;99.01;101242.72;5028260;28;20076;-74
2023/09/29 07:51:58;;;;;;;6.75;2.50;;;;;;;19.54;98.45;101253.16;5027600;28;20120;-75
2023/09/29 07:54:24;;;;;;;6.63;2.70;;;;;;;19.64;96.98;101256.72;5027648;28;20112;-75
2023/09/29 07:56:50;;;;;;;4.15;2.33;;;;;;;19.68;97.16;101251.72;5026848;28;20083;-72
2023/09/29 07:59:16;;;;;;;3.70;2.60;;;;;;;19.76;97.05;101257.31;5027358;28;20169;-75
2023/09/29 08:01:43;;;;;;;5.97;2.92;;;;;;;19.77;97.73;101256.25;5035552;28;20052;-77
2023/09/29 08:04:09;;;;;;;5.90;2.75;;;;;;;19.83;97.41;101258.41;5027279;28;20024;-74
2023/09/29 08:06:35;;;;;;;7.93;2.85;;;;;;;19.90;97.31;101259.47;5028035;28;20056;-77
2023/09/29 08:09:01;;;;;;;4.78;2.65;;;;;;;20.06;96.48;101267.88;5027771;28;20466;-76
2023/09/29 08:11:26;;;;;;;8.95;3.13;;;;;;;20.23;94.74;101257.78;5028081;28;20107;-75
2023/09/29 08:13:53;;;;;;;5.90;2.30;;;;;;;20.36;95.21;101269.25;5041292;28;20480;-75
2023/09/29 08:16:19;;;;;;;5.97;2.50;;;;;;;20.39;94.05;101271.72;5047121;28;20041;-77
2023/09/29 08:18:45;;;;;;;5.15;2.53;;;;;;;20.44;93.21;101271.22;5045779;28;20033;-77
2023/09/29 08:21:10;;;;;;;6.28;2.47;;;;;;;20.43;92.73;101268.63;5045079;28;20032;-76
2023/09/29 08:23:36;;;;;;;6.07;2.83;;;;;;;20.44;92.24;101279.50;5009079;28;20068;-74
2023/09/29 08:26:01;;;;;;;4.95;2.55;;;;;;;20.48;92.33;101277.31;5027117;28;20033;-76
2023/09/29 08:28:26;;;;;;;5.95;2.67;;;;;;;20.49;91.48;101285.44;5025486;28;20464;-77
2023/09/29 08:30:52;;;;;;;7.43;2.38;;;;;;;20.49;91.03;101281.81;5027098;28;20473;-78
2023/09/29 08:33:17;;;;;;;6.05;2.42;;;;;;;20.49;91.60;101287.34;5027425;28;20041;-77
2023/09/29 08:35:42;;;;;;;3.53;2.65;;;;;;;20.51;91.91;101293.56;5025638;28;20025;-77
2023/09/29 08:38:09;;;;;;;6.05;2.60;;;;;;;20.52;91.80;101290.66;5026678;28;20045;-74
2023/09/29 08:40:39;;;;;;;7.05;2.60;;;;;;;20.63;92.11;101295.00;5027353;28;20025;-73
2023/09/29 08:43:06;;;;;;;3.85;2.50;;;;;;;20.74;93.73;101297.47;5027709;28;20045;-76
2023/09/29 08:45:32;;;;;;;5.82;2.72;;;;;;;20.83;90.92;101309.44;5028410;28;20047;-76
2023/09/29 08:47:59;;;;;;;7.80;3.08;;;;;;;20.82;90.54;101307.69;5030707;28;20037;-76
2023/09/29 08:50:25;;;;;;;8.25;3.10;;;;;;;20.92;89.83;101316.72;5029522;28;20493;-76
2023/09/29 08:52:51;;;;;;;6.05;3.00;;;;;;;21.00;91.98;101313.13;5039702;28;20037;-75
2023/09/29 08:55:17;;;;;;;9.98;3.22;;;;;;;21.09;89.86;101317.66;5047567;28;20127;-76
2023/09/29 08:57:43;;;;;;;5.55;2.78;;;;;;;21.19;90.91;101314.75;5012723;28;20064;-76
2023/09/29 09:00:13;;;;;;;5.32;2.95;;;;;;;21.28;89.22;101305.44;5030076;28;20470;-74
2023/09/29 09:02:43;;;;;;;10.52;3.03;;;;;;;21.39;89.17;101310.66;5041914;28;20033;-77
2023/09/29 09:05:12;;;;;;;7.50;3.20;;;;;;;21.48;88.99;101306.00;5012668;28;20083;-77
2023/09/29 09:07:41;;;;;;;6.30;2.50;;;;;;;21.55;87.05;101319.00;5029089;28;20083;-77
2023/09/29 09:10:09;;;;;;;4.05;2.53;;;;;;;21.59;87.55;101320.41;5029717;28;20489;-77
2023/09/29 09:12:36;;;;;;;5.85;2.92;;;;;;;21.63;86.05;101321.75;5030829;28;20136;-77
2023/09/29 09:15:03;;;;;;;6.43;2.83;;;;;;;21.61;84.61;101326.63;5030363;28;20056;-75
2023/09/29 09:17:29;;;;;;;7.82;3.13;;;;;;;21.58;84.57;101332.50;5030460;28;20032;-76
2023/09/29 09:19:55;;;;;;;6.10;2.67;;;;;;;21.62;85.80;101328.34;5028791;28;20045;-76
2023/09/29 09:22:24;;;;;;;5.32;2.80;;;;;;;21.61;84.64;101334.94;5030099;28;20481;-76
2023/09/29 09:24:51;;;;;;;5.70;2.80;;;;;;;21.48;85.93;101336.47;5029438;28;20468;-73
2023/09/29 09:27:18;;;;;;;8.30;4.00;;;;;;;21.38;86.66;101336.63;5014144;28;20080;-76
2023/09/29 09:29:44;;;;;;;4.35;2.80;;;;;;;21.18;88.14;101343.47;5049728;28;20044;-78
2023/09/29 09:32:14;;;;;;;7.00;2.90;;;;;;;21.09;89.60;101356.41;5045240;28;20139;-78
2023/09/29 09:34:41;;;;;;;3.95;2.35;;;;;;;21.07;90.93;101356.53;5030229;28;20045;-76
2023/09/29 09:37:08;;;;;;;4.57;2.70;;;;;;;21.07;91.55;101350.16;5028765;28;20049;-76
2023/09/29 09:39:34;;;;;;;4.50;2.80;;;;;;;21.03;91.16;101352.41;5050057;28;20041;-77
2023/09/29 09:42:05;;;;;;;6.70;2.65;;;;;;;20.99;90.79;101353.78;5032769;28;20044;-76
2023/09/29 09:44:32;;;;;;;9.35;2.53;;;;;;;20.99;90.32;101355.69;5031604;28;20033;-76
2023/09/29 09:47:01;;;;;;;6.72;2.78;;;;;;;21.02;91.12;101355.31;5028309;28;20069;-77
2023/09/29 09:49:47;;;;;;;6.90;2.83;;;;;;;21.05;90.74;101355.00;5028242;28;20037;-75
2023/09/29 09:52:36;;;;;;;5.65;2.92;;;;;;;21.14;90.71;101362.28;5029633;28;20048;-78
2023/09/29 09:55:13;;;;;;;6.68;2.67;;;;;;;21.22;89.54;101354.03;5028836;28;20066;-73
2023/09/29 09:57:42;;;;;;;9.68;2.80;;;;;;;21.23;89.60;101368.72;5028533;28;20029;-78
2023/09/29 10:00:13;;;;;;;6.80;2.35;;;;;;;21.21;88.12;101368.88;5028807;28;20505;-74
2023/09/29 10:02:44;;;;;;;6.63;2.53;;;;;;;21.28;89.04;101371.84;5045351;28;20036;-77
2023/09/29 10:05:31;;;;;;;5.10;2.72;;;;;;;21.35;88.31;101370.16;5028384;28;20094;-77
2023/09/29 10:08:01;;;;;;;6.07;2.35;;;;;;;21.43;88.14;101377.63;5028860;28;20508;-78
2023/09/29 10:10:42;;;;;;;5.70;2.42;;;;;;;21.47;87.72;101374.34;5028702;28;20389;-76
2023/09/29 10:13:11;;;;;;;4.60;2.30;;;;;;;21.45;86.42;101376.44;5028196;28;20056;-73
2023/09/29 10:15:40;;;;;;;5.95;2.95;;;;;;;21.39;87.38;101377.97;5029058;28;20049;-74
2023/09/29 10:18:19;;;;;;;4.97;2.20;;;;;;;21.37;87.29;101380.03;5029777;28;20034;-78
2023/09/29 10:21:00;;;;;;;4.63;2.38;;;;;;;21.40;86.56;101381.59;5027796;28;20083;-76
2023/09/29 10:23:26;;;;;;;5.07;2.65;;;;;;;21.33;87.05;101375.88;5028702;28;20064;-77
2023/09/29 10:25:59;;;;;;;7.80;2.95;;;;;;;21.31;86.18;101380.72;5034226;28;20063;-75
2023/09/29 10:28:36;;;;;;;5.70;2.53;;;;;;;21.36;86.71;101383.00;5035674;28;20046;-77
2023/09/29 10:31:19;;;;;;;8.25;3.05;;;;;;;21.38;86.83;101383.69;5029270;28;20227;-77
2023/09/29 10:33:53;;;;;;;4.78;2.30;;;;;;;21.40;87.11;101389.91;5028804;28;20433;-75
2023/09/29 10:36:29;;;;;;;8.05;2.60;;;;;;;21.39;87.36;101397.34;5028689;28;20044;-77
2023/09/29 10:38:58;;;;;;;10.82;2.83;;;;;;;21.32;87.20;101399.06;5046559;28;20040;-74
2023/09/29 10:41:25;;;;;;;6.22;2.70;;;;;;;21.29;87.22;101401.25;5027199;28;20084;-77
2023/09/29 10:43:51;;;;;;;5.80;2.50;;;;;;;21.20;87.00;101408.66;5026575;28;20033;-75
2023/09/29 10:46:20;;;;;;;6.22;3.00;;;;;;;21.15;87.16;101408.28;5028394;28;20033;-77
2023/09/29 10:48:50;;;;;;;9.80;2.40;;;;;;;21.11;87.81;101415.19;5028268;28;20151;-76
2023/09/29 10:51:22;;;;;;;4.75;2.60;;;;;;;21.07;87.89;101405.47;5014871;28;20036;-74
2023/09/29 10:53:48;;;;;;;4.50;2.42;;;;;;;21.05;88.49;101405.66;5031335;28;20107;-75
2023/09/29 10:56:21;;;;;;;7.47;2.60;;;;;;;20.99;88.80;101411.00;5027538;28;20473;-77
2023/09/29 10:58:49;;;;;;;6.38;2.83;;;;;;;21.03;88.39;101427.09;5028846;28;20127;-77
2023/09/29 11:01:26;;;;;;;5.80;2.50;;;;;;;21.01;88.53;101431.06;5042578;28;20159;-75
2023/09/29 11:03:52;;;;;;;7.82;2.40;;;;;;;20.96;89.28;101434.31;5026409;28;20073;-76
2023/09/29 11:06:18;;;;;;;6.80;2.70;;;;;;;21.07;90.21;101433.16;5026767;28;20052;-75
2023/09/29 11:08:52;;;;;;;6.97;3.00;;;;;;;21.27;90.70;101429.13;5027346;28;20041;-76
2023/09/29 11:11:17;;;;;;;3.60;2.20;;;;;;;21.48;89.17;101425.91;5027081;28;20041;-78
2023/09/29 11:13:43;;;;;;;5.90;2.83;;;;;;;21.51;87.62;101435.81;5027646;28;20073;-76
2023/09/29 11:16:19;;;;;;;5.95;2.72;;;;;;;21.53;86.99;101423.50;5025894;28;20115;-73
2023/09/29 11:18:45;;;;;;;4.78;2.60;;;;;;;21.59;86.50;101420.09;5041384;28;20148;-77